createdAt,value
2019-01-06T00:02:24.847Z,39.23
2019-01-06T00:05:17.474Z,27.77
2019-01-06T00:08:05.967Z,33.57
2019-01-06T00:10:58.706Z,33.13
2019-01-06T00:13:51.396Z,32.70
2019-01-06T00:16:39.696Z,32.90
2019-01-06T00:19:33.484Z,33.23
2019-01-06T00:22:27.298Z,34.20
2019-01-06T00:25:35.489Z,32.37
2019-01-06T00:28:25.231Z,37.30
2019-01-06T00:31:27.182Z,31.50
2019-01-06T00:34:32.314Z,31.93
2019-01-06T00:37:35.343Z,30.07
2019-01-06T00:40:31.355Z,31.73
2019-01-06T00:43:16.013Z,28.10
2019-01-06T00:46:24.127Z,40.13
2019-01-06T00:49:11.409Z,34.13
2019-01-06T00:52:01.101Z,34.43
2019-01-06T00:54:45.078Z,31.47
2019-01-06T00:57:33.711Z,34.07
2019-01-06T01:00:22.098Z,29.37
2019-01-06T01:03:30.267Z,24.17
2019-01-06T01:06:26.496Z,34.00
2019-01-06T01:09:53.087Z,27.07
2019-01-06T01:12:49.151Z,32.13
2019-01-06T01:15:40.963Z,30.30
2019-01-06T01:18:33.932Z,31.67
2019-01-06T01:21:34.560Z,31.67
2019-01-06T01:24:30.433Z,23.77
2019-01-06T01:27:29.377Z,33.47
2019-01-06T01:30:32.007Z,34.20
2019-01-06T01:33:20.188Z,25.53
2019-01-06T01:43:56.353Z,26.13
2019-01-06T01:50:21.694Z,27.17
2019-01-06T01:53:20.773Z,25.77
2019-01-06T01:56:13.239Z,21.70
2019-01-06T01:59:12.284Z,23.17
2019-01-06T02:02:17.322Z,18.87
2019-01-06T02:05:06.115Z,25.20
2019-01-06T02:08:08.072Z,20.60
2019-01-06T02:10:55.026Z,20.43
2019-01-06T02:13:47.596Z,23.73
2019-01-06T02:16:39.315Z,26.40
2019-01-06T02:19:28.926Z,22.50
2019-01-06T02:22:36.864Z,18.73
2019-01-06T02:25:25.656Z,26.07
2019-01-06T02:28:13.355Z,18.90
2019-01-06T02:31:06.074Z,19.57
2019-01-06T02:33:55.704Z,23.30
2019-01-06T02:37:07.886Z,19.60
2019-01-06T02:40:50.231Z,24.43
2019-01-06T02:47:12.277Z,25.07
2019-01-06T02:50:13.438Z,17.80
2019-01-06T02:53:14.426Z,26.07
2019-01-06T02:56:39.148Z,35.47
2019-01-06T02:59:52.289Z,29.13
2019-01-06T03:02:50.649Z,22.33
2019-01-06T03:05:49.414Z,22.53
2019-01-06T03:08:47.479Z,24.43
2019-01-06T03:11:31.274Z,20.60
2019-01-06T03:14:17.798Z,19.27
2019-01-06T03:17:06.091Z,24.97
2019-01-06T03:19:55.841Z,21.93
2019-01-06T03:22:44.666Z,21.93
2019-01-06T03:25:42.671Z,17.40
2019-01-06T03:28:52.360Z,20.17
2019-01-06T03:31:45.308Z,19.63
2019-01-06T03:34:33.862Z,19.00
2019-01-06T03:37:22.965Z,20.40
2019-01-06T03:40:12.876Z,16.00
2019-01-06T03:43:02.749Z,18.43
2019-01-06T03:45:58.617Z,14.80
2019-01-06T03:49:30.000Z,16.20
2019-01-06T03:52:24.659Z,17.87
2019-01-06T03:55:17.306Z,17.97
2019-01-06T03:58:33.416Z,17.00
2019-01-06T04:01:24.768Z,13.80
2019-01-06T04:04:18.376Z,15.73
2019-01-06T04:07:20.116Z,13.17
2019-01-06T04:10:12.750Z,14.20
2019-01-06T04:13:02.201Z,8.93
2019-01-06T04:16:01.699Z,10.93
2019-01-06T04:19:04.188Z,14.03
2019-01-06T04:21:53.875Z,15.47
2019-01-06T04:24:50.002Z,13.07
2019-01-06T04:27:40.381Z,13.90
2019-01-06T04:30:29.902Z,11.33
2019-01-06T04:33:22.963Z,13.57
2019-01-06T04:36:25.309Z,7.97
2019-01-06T04:39:13.846Z,9.57
2019-01-06T04:42:11.261Z,14.17
2019-01-06T04:45:01.250Z,12.63
2019-01-06T04:48:02.128Z,9.13
2019-01-06T04:50:58.008Z,6.30
2019-01-06T04:53:46.093Z,11.13
2019-01-06T04:56:44.831Z,11.03
2019-01-06T04:59:28.185Z,9.13
2019-01-06T05:02:33.890Z,9.23
2019-01-06T05:05:24.574Z,10.23
2019-01-06T05:08:17.599Z,8.03
2019-01-06T05:11:07.399Z,10.43
2019-01-06T05:14:03.939Z,6.70
2019-01-06T05:17:00.989Z,7.67
2019-01-06T05:19:49.153Z,8.03
2019-01-06T05:22:53.559Z,12.73
2019-01-06T05:25:46.939Z,8.00
2019-01-06T05:28:52.329Z,10.53
2019-01-06T05:31:48.971Z,9.17
2019-01-06T05:38:09.961Z,8.27
2019-01-06T05:41:24.147Z,7.33
2019-01-06T05:44:42.933Z,5.73
2019-01-06T05:51:39.017Z,7.33
2019-01-06T05:55:17.719Z,7.07
2019-01-06T05:58:07.757Z,12.53
2019-01-06T06:00:53.103Z,6.70
2019-01-06T06:03:41.946Z,9.87
2019-01-06T06:06:31.669Z,9.77
2019-01-06T06:09:20.265Z,8.37
2019-01-06T06:12:07.229Z,10.10
2019-01-06T06:14:56.562Z,10.60
2019-01-06T06:17:44.949Z,11.33
2019-01-06T06:20:33.678Z,5.33
2019-01-06T06:23:41.461Z,5.60
2019-01-06T06:26:35.685Z,4.83
2019-01-06T06:29:16.200Z,4.00
2019-01-06T06:32:05.878Z,10.10
2019-01-06T06:34:58.825Z,11.33
2019-01-06T06:38:03.614Z,5.00
2019-01-06T06:40:59.134Z,5.77
2019-01-06T06:43:47.441Z,8.87
2019-01-06T06:46:50.127Z,4.87
2019-01-06T06:49:38.846Z,6.13
2019-01-06T06:52:27.932Z,9.40
2019-01-06T06:55:16.223Z,6.67
2019-01-06T06:58:59.311Z,7.10
2019-01-06T07:02:17.462Z,10.77
2019-01-06T07:05:10.069Z,5.47
2019-01-06T07:07:57.171Z,11.43
2019-01-06T07:10:48.703Z,6.20
2019-01-06T07:13:41.202Z,9.50
2019-01-06T07:17:05.623Z,8.63
2019-01-06T07:20:00.577Z,5.50
2019-01-06T07:23:13.656Z,5.90
2019-01-06T07:25:44.114Z,5.43
2019-01-06T07:28:58.714Z,7.30
2019-01-06T07:31:52.853Z,19.67
2019-01-06T07:34:57.414Z,9.63
2019-01-06T07:37:53.429Z,9.57
2019-01-06T07:40:45.185Z,6.93
2019-01-06T07:43:33.827Z,8.10
2019-01-06T07:46:26.783Z,6.63
2019-01-06T07:49:17.229Z,9.50
2019-01-06T07:52:18.121Z,7.03
2019-01-06T07:56:05.209Z,5.67
2019-01-06T07:59:19.836Z,5.37
2019-01-06T08:02:12.422Z,6.57
2019-01-06T08:17:15.763Z,7.27
2019-01-06T08:20:32.902Z,8.43
2019-01-06T08:24:12.150Z,5.77
2019-01-06T08:44:27.658Z,8.27
2019-01-06T09:09:18.205Z,5.07
2019-01-06T09:12:31.880Z,7.83
2019-01-06T09:51:59.748Z,9.87
2019-01-06T10:04:13.176Z,8.77
2019-01-06T10:07:28.276Z,9.63
2019-01-06T10:24:57.356Z,8.50
2019-01-06T10:27:46.930Z,8.23
2019-01-06T11:02:45.006Z,12.27
2019-01-06T11:26:45.199Z,10.27
2019-01-06T11:29:37.407Z,11.83
2019-01-06T11:44:59.740Z,10.70
2019-01-06T11:47:41.873Z,14.20
2019-01-06T11:50:55.579Z,13.70
2019-01-06T12:02:55.975Z,12.37
2019-01-06T12:31:50.714Z,14.33
2019-01-06T12:34:40.488Z,18.40
2019-01-06T12:37:34.221Z,12.27
2019-01-06T12:40:25.910Z,13.50
2019-01-06T12:43:15.117Z,12.93
2019-01-06T12:46:05.996Z,10.97
2019-01-06T12:55:26.380Z,15.17
2019-01-06T12:58:40.997Z,9.83
2019-01-06T13:01:31.363Z,13.23
2019-01-06T13:07:14.505Z,8.50
2019-01-06T13:10:31.252Z,9.37
2019-01-06T13:49:07.878Z,7.97
2019-01-06T13:51:53.605Z,9.00
2019-01-06T13:54:50.703Z,9.17
2019-01-06T13:58:28.286Z,9.90
2019-01-06T14:16:22.637Z,8.63
2019-01-06T14:22:03.154Z,10.13
2019-01-06T14:24:57.466Z,8.97
2019-01-06T14:34:16.980Z,10.30
2019-01-06T14:40:19.541Z,14.27
2019-01-06T14:46:48.155Z,10.80
2019-01-06T14:49:43.459Z,10.40
2019-01-06T14:52:35.314Z,10.70
2019-01-06T14:55:50.451Z,14.03
2019-01-06T15:01:52.917Z,11.87
2019-01-06T15:04:49.048Z,12.13
2019-01-06T15:12:05.182Z,15.30
2019-01-06T15:15:00.831Z,11.63
2019-01-06T15:27:10.004Z,9.43
2019-01-06T15:30:49.366Z,12.10
2019-01-06T15:34:03.184Z,9.17
2019-01-06T15:36:56.417Z,14.00
2019-01-06T15:43:03.237Z,10.90
2019-01-06T15:46:31.345Z,13.17
2019-01-06T15:49:32.912Z,10.23
2019-01-06T16:19:12.426Z,12.20
2019-01-06T16:22:30.053Z,10.77
2019-01-06T16:28:59.160Z,9.43
2019-01-06T16:35:27.357Z,9.50
2019-01-06T16:38:19.551Z,10.57
2019-01-06T16:41:37.098Z,7.97
2019-01-06T16:50:57.263Z,7.07
2019-01-06T16:53:51.059Z,10.83
2019-01-06T16:57:01.604Z,7.70
2019-01-06T17:01:53.526Z,8.47
2019-01-06T17:04:00.617Z,6.80
2019-01-06T17:07:14.514Z,8.80
2019-01-06T17:10:52.786Z,8.63
2019-01-06T17:13:44.493Z,8.70
2019-01-06T17:16:56.740Z,9.03
2019-01-06T17:19:48.909Z,12.17
2019-01-06T17:23:04.917Z,11.73
2019-01-06T17:26:19.110Z,10.30
2019-01-06T17:30:32.291Z,8.67
2019-01-06T17:32:35.506Z,10.67
2019-01-06T17:35:48.206Z,10.63
2019-01-06T17:38:52.288Z,10.97
2019-01-06T17:41:46.028Z,10.43
2019-01-06T17:44:38.793Z,10.47
2019-01-06T17:48:18.754Z,10.00
2019-01-06T17:51:32.430Z,13.53
2019-01-06T18:04:56.624Z,12.63
2019-01-06T18:07:47.735Z,11.67
2019-01-06T18:10:24.869Z,12.13
2019-01-06T18:10:41.851Z,14.03
2019-01-06T18:13:35.140Z,13.47
2019-01-06T18:16:28.878Z,16.13
2019-01-06T18:19:26.131Z,11.17
2019-01-06T18:22:17.965Z,12.73
2019-01-06T18:25:15.478Z,12.87
2019-01-06T18:28:08.811Z,14.10
2019-01-06T18:31:19.829Z,13.73
2019-01-06T18:34:16.882Z,14.83
2019-01-06T18:37:12.658Z,13.40
2019-01-06T18:40:22.109Z,14.37
2019-01-06T18:43:36.364Z,17.43
2019-01-06T18:46:51.647Z,12.60
2019-01-06T18:50:27.728Z,17.47
2019-01-06T18:53:22.879Z,22.87
2019-01-06T18:56:59.931Z,17.70
2019-01-06T19:05:55.785Z,17.03
2019-01-06T19:08:46.763Z,15.37
2019-01-06T19:11:40.136Z,14.90
2019-01-06T19:14:32.714Z,13.57
2019-01-06T19:18:32.534Z,16.30
2019-01-06T19:21:09.326Z,13.87
2019-01-06T19:24:40.188Z,13.90
2019-01-06T19:27:31.167Z,14.63
2019-01-06T19:30:29.968Z,15.20
2019-01-06T19:33:37.835Z,13.90
2019-01-06T19:42:58.723Z,12.27
2019-01-06T19:46:11.527Z,12.67
2019-01-06T19:52:32.343Z,14.60
2019-01-06T19:55:37.842Z,13.83
2019-01-06T19:58:49.684Z,13.23
2019-01-06T20:02:17.872Z,12.53
2019-01-06T20:13:05.621Z,15.77
2019-01-06T20:17:48.688Z,13.70
2019-01-06T20:19:56.708Z,14.07
2019-01-06T20:22:49.286Z,12.13
2019-01-06T20:26:06.200Z,12.83
2019-01-06T20:29:18.787Z,12.23
2019-01-06T20:32:33.220Z,14.30
2019-01-06T20:35:25.381Z,15.87
2019-01-06T20:38:39.898Z,15.70
2019-01-06T20:41:58.679Z,16.97
2019-01-06T20:45:09.327Z,14.30
2019-01-06T20:48:25.934Z,14.90
2019-01-06T20:51:30.048Z,18.00
2019-01-06T20:54:32.579Z,14.50
2019-01-06T20:57:37.651Z,13.70
2019-01-06T21:05:06.474Z,14.43
2019-01-06T21:08:22.858Z,13.77
2019-01-06T21:11:39.183Z,13.17
2019-01-06T21:14:35.496Z,14.20
2019-01-06T21:18:07.682Z,14.90
2019-01-06T21:24:13.828Z,17.00
2019-01-06T21:31:15.715Z,13.73
2019-01-06T21:34:04.465Z,14.37
2019-01-06T21:39:56.808Z,16.40
2019-01-06T21:42:49.162Z,15.70
2019-01-06T21:45:39.502Z,17.47
2019-01-06T21:48:32.915Z,16.03
2019-01-06T21:51:21.763Z,15.10
2019-01-06T21:54:25.127Z,14.97
2019-01-06T21:57:19.253Z,14.20
2019-01-06T22:00:24.180Z,17.77
2019-01-06T22:03:20.705Z,15.37
2019-01-06T22:06:03.998Z,13.63
2019-01-06T22:08:56.610Z,18.63
2019-01-06T22:11:56.808Z,12.60
2019-01-06T22:19:12.167Z,14.67
2019-01-06T22:22:45.777Z,13.33
2019-01-06T22:26:03.659Z,10.87
2019-01-06T22:29:36.754Z,10.93
2019-01-06T22:32:59.789Z,13.50
2019-01-06T22:39:51.029Z,10.47
2019-01-06T22:42:43.628Z,9.87
2019-01-06T22:49:16.318Z,11.03
2019-01-06T22:55:45.025Z,13.53
2019-01-06T23:03:02.713Z,10.83
2019-01-06T23:05:54.213Z,13.17
2019-01-06T23:09:09.557Z,11.70
2019-01-06T23:12:25.096Z,11.57
2019-01-06T23:19:26.824Z,9.93
2019-01-06T23:25:24.325Z,10.93
2019-01-06T23:31:43.977Z,12.47
2019-01-06T23:39:08.020Z,15.37
2019-01-06T23:42:04.395Z,12.10
2019-01-06T23:48:00.820Z,11.17
2019-01-06T23:51:26.657Z,14.20
